Saturday, February 24, 2018, 10:28 PM EST
Back to Local

KOXB, Ocean City Municipal Airport

Location: Berlin, MD, United States Lat: 38.317
Local Time: 10:28 PM EST ( 3:28 GMT) Lon: -75.117
Time Zone: US/Eastern Elev: 13 ft

Show me the last for .
Show Coded

Time T Td Feel RH Dir Speed Gust Alt SLP Vis Weather Sky Remarks
2018-02-24 22:22 45 44 41 96 90° 8 - 30.14 - 10 OVC009 None
2018-02-24 21:53 46 44 41 92 60° 9 - 30.15 30.14 10 OVC011 None
2018-02-24 20:53 46 44 41 92 60° 9 - 30.15 30.15 10 OVC012 None
2018-02-24 20:11 45 45 40 100 60° 9 - 30.16 - 10 OVC011 None
2018-02-24 19:53 45 45 39 100 50° 12 - 30.16 30.16 10 SCT002 OVC009 None
2018-02-24 19:40 46 46 41 100 50° 10 - 30.16 - 3 BR BKN002 OVC007 None
2018-02-24 19:10 45 45 39 100 40° 12 - 30.15 - 1 BR OVC002 None
2018-02-24 19:01 45 45 40 100 40° 9 - 30.14 - 0 BR OVC002 None
2018-02-24 18:53 45 45 40 100 40° 9 - 30.14 30.14 1 BR OVC002 6-hr Precip Total (7pm): 0.00"
6-hr Min Temp (7pm): 45.0°F
6-hr Max Temp (7pm): 50.0°F
2018-02-24 18:49 45 45 39 100 40° 12 - 30.14 - 1 BR OVC002 None
2018-02-24 18:42 45 45 41 100 40° 8 - 30.14 - 2 BR OVC002 None
2018-02-24 18:11 45 45 40 100 40° 9 - 30.14 - 1 BR OVC002 None
2018-02-24 17:53 45 45 40 100 50° 9 - 30.13 30.13 0 BR VV003 None
2018-02-24 17:51 45 45 40 100 60° 8 - 30.13 - 0 FG VV003 None
2018-02-24 16:53 48 48 43 100 50° 10 - 30.13 30.12 0 FG OVC002 None
2018-02-24 16:27 50 50 47 100 40° 7 - 30.13 - 0 FG OVC002 None
2018-02-24 16:17 50 50 47 100 30° 8 - 30.13 - 1 BR OVC002 None
2018-02-24 15:53 50 50 49 100 20° 3 - 30.13 30.13 0 FG VV003 1-hr Precip Total: Trace
6-hr Precip Total (4pm): 0.00"
2018-02-24 15:33 50 50 48 100 70° 5 - 30.12 - 0 -RA FG VV003 1-hr Precip Total: Trace
2018-02-24 15:26 50 50 48 100 80° 5 - 30.12 - 0 -RA FG VV003 1-hr Precip Total: Trace
2018-02-24 14:52 49 49 - 100 - Calm - 30.11 30.11 0 FG OVC003 None
2018-02-24 14:51 48 48 47 100 110° 3 - 30.11 - 0 FG OVC003 None
2018-02-24 14:44 49 49 48 100 110° 3 - 30.11 - 1 BR OVC003 Variable visibility
2018-02-24 13:53 49 49 - 100 - Calm - 30.12 30.12 3 BR OVC003 None
2018-02-24 12:53 48 48 - 100 - Calm - 30.13 30.13 4 BR OVC003 6-hr Min Temp (1pm): 43.0°F
6-hr Max Temp (1pm): 51.1°F
2018-02-24 12:49 48 48 46 100 180° 5 - 30.13 - 3 BR OVC003 None
2018-02-24 12:32 48 48 46 100 170° 5 - 30.14 - 1 BR OVC003 Variable visibility
2018-02-24 12:06 48 48 45 100 190° 6 - 30.16 - 0 FG OVC003 None
2018-02-24 11:57 49 49 45 100 190° 8 - 30.16 - 1 BR OVC003 None
2018-02-24 11:53 50 50 48 100 190° 6 - 30.16 30.16 5 BR OVC003 None
2018-02-24 11:31 50 50 - 100 - Calm - 30.17 - 3 BR OVC003 None
2018-02-24 11:22 50 50 49 100 110° 3 - 30.17 - 1 BR OVC003 None
2018-02-24 11:16 51 51 - 100 - Calm - 30.17 - 3 BR OVC003 None
2018-02-24 11:08 49 49 - 100 - Calm - 30.17 - 1 BR OVC002 None
2018-02-24 10:53 49 49 48 100 190° 3 - 30.18 30.18 0 FG OVC002 None
2018-02-24 10:31 47 47 - 100 - Calm - 30.18 - 0 FG VV003 None
2018-02-24 09:53 45 45 43 100 210° 5 - 30.20 30.19 0 FG VV003 None
2018-02-24 08:53 44 44 - 100 - Calm - 30.20 30.20 0 FG VV003 None
2018-02-24 07:53 44 44 - 100 - Calm - 30.21 30.20 0 FG VV003 None
2018-02-24 07:09 43 43 40 100 190° 5 - 30.20 - 0 FG VV003 None
2018-02-24 06:53 44 44 43 100 180° 3 - 30.20 30.20 0 FG VV003 24-hr Precip Total (7am): 0.03"
6-hr Min Temp (7am): 43.0°F
6-hr Max Temp (7am): 48.0°F
2018-02-24 05:53 43 43 40 100 210° 5 - 30.20 30.19 0 FG VV003 None
2018-02-24 04:53 44 44 41 100 190° 6 - 30.20 30.19 0 FG VV003 None
2018-02-24 04:00 45 45 - 100 - Calm - 30.21 - 0 FG VV003 None
2018-02-24 03:53 45 45 44 100 190° 3 - 30.21 30.21 0 FG VV003 None
2018-02-24 02:53 48 48 46 100 220° 5 - 30.22 30.22 0 FG VV002 None
2018-02-24 02:16 48 48 47 100 270° 3 - 30.24 - 0 BR VV003 None
2018-02-24 01:53 48 48 45 100 230° 6 - 30.24 30.24 1 BR OVC002 None
2018-02-24 01:49 48 48 45 100 230° 7 - 30.24 - 1 BR OVC002 None
2018-02-24 01:32 48 48 45 100 260° 6 - 30.25 - 2 BR OVC002 None
2018-02-24 01:02 48 48 45 100 260° 7 - 30.26 - 3 BR OVC002 None
2018-02-24 00:53 48 48 45 100 250° 6 - 30.26 30.26 1 BR OVC002 6-hr Min Temp (1am): 43.0°F
6-hr Max Temp (1am): 48.0°F
2018-02-24 00:03 48 48 44 100 250° 8 - 30.27 - 2 BR OVC003 None
2018-02-23 23:53 48 48 44 100 260° 8 - 30.27 30.27 3 BR OVC003 24-hr Min Temp (12am): 42.1°F
24-hr Max Temp (12am): 48.0°F
2018-02-23 22:53 48 48 45 100 260° 6 - 30.29 30.29 6 BR OVC003 None

Support USWX by starting your Amazon purchase here.